createdAt,value
2023-06-14T00:00:13.418Z,11.77
2023-06-14T00:03:36.615Z,11.79
2023-06-14T00:06:40.003Z,11.80
2023-06-14T00:09:42.785Z,11.80
2023-06-14T00:12:45.789Z,11.83
2023-06-14T00:15:48.901Z,11.87
2023-06-14T00:18:54.522Z,11.92
2023-06-14T00:21:57.937Z,11.93
2023-06-14T00:25:08.257Z,11.92
2023-06-14T00:28:14.761Z,11.97
2023-06-14T00:31:17.754Z,12.00
2023-06-14T00:34:20.604Z,12.03
2023-06-14T00:37:23.615Z,12.03
2023-06-14T00:40:26.452Z,12.04
2023-06-14T00:43:29.506Z,12.09
2023-06-14T00:46:32.367Z,12.13
2023-06-14T00:49:35.545Z,12.15
2023-06-14T00:52:38.707Z,12.17
2023-06-14T00:55:41.534Z,12.19
2023-06-14T00:58:44.653Z,12.19
2023-06-14T01:01:47.675Z,12.20
2023-06-14T01:04:52.723Z,12.19
2023-06-14T01:08:11.538Z,12.18
2023-06-14T01:11:23.070Z,12.17
2023-06-14T01:14:28.768Z,12.16
2023-06-14T01:17:33.167Z,12.16
2023-06-14T01:20:39.154Z,12.14
2023-06-14T01:23:42.312Z,12.15
2023-06-14T01:26:47.061Z,12.17
2023-06-14T01:29:53.094Z,12.12
2023-06-14T01:32:57.636Z,12.07
2023-06-14T01:36:02.043Z,12.06
2023-06-14T01:39:07.464Z,12.06
2023-06-14T01:42:12.146Z,12.01
2023-06-14T01:45:16.225Z,11.96
2023-06-14T01:48:20.181Z,11.94
2023-06-14T01:51:24.553Z,11.90
2023-06-14T01:54:28.522Z,11.89
2023-06-14T01:57:31.812Z,11.83
2023-06-14T02:00:36.037Z,11.76
2023-06-14T02:03:40.271Z,11.74
2023-06-14T02:06:43.055Z,11.71
2023-06-14T02:09:45.951Z,11.74
2023-06-14T02:12:49.383Z,11.78
2023-06-14T02:15:54.296Z,11.84
2023-06-14T02:18:58.978Z,11.89
2023-06-14T02:22:01.857Z,11.93
2023-06-14T02:25:05.144Z,11.98
2023-06-14T02:28:09.719Z,12.05
2023-06-14T02:31:12.582Z,12.10
2023-06-14T02:34:17.905Z,12.13
2023-06-14T02:37:20.869Z,12.13
2023-06-14T02:40:24.515Z,12.11
2023-06-14T02:43:27.361Z,12.08
2023-06-14T02:46:30.196Z,12.11
2023-06-14T02:49:33.032Z,12.10
2023-06-14T02:52:35.969Z,12.07
2023-06-14T02:55:41.400Z,12.05
2023-06-14T02:58:44.981Z,12.04
2023-06-14T03:01:47.812Z,12.03
2023-06-14T03:04:51.764Z,12.03
2023-06-14T03:07:55.575Z,12.02
2023-06-14T03:10:58.625Z,12.01
2023-06-14T03:14:02.177Z,12.01
2023-06-14T03:17:06.296Z,12.03
2023-06-14T03:20:11.439Z,11.97
2023-06-14T03:23:14.302Z,11.92
2023-06-14T03:26:20.526Z,11.86
2023-06-14T03:29:25.118Z,11.82
2023-06-14T03:32:28.503Z,11.84
2023-06-14T03:35:31.733Z,11.87
2023-06-14T03:38:35.630Z,11.91
2023-06-14T03:41:39.372Z,11.99
2023-06-14T03:44:42.303Z,12.06
2023-06-14T03:47:45.843Z,12.13
2023-06-14T03:50:48.846Z,12.18
2023-06-14T03:54:14.973Z,12.23
2023-06-14T03:57:15.035Z,12.26
2023-06-14T04:00:19.453Z,12.30
2023-06-14T04:03:30.977Z,12.36
2023-06-14T04:06:34.913Z,12.40
2023-06-14T04:09:37.761Z,12.43
2023-06-14T04:12:43.649Z,12.45
2023-06-14T04:15:47.307Z,12.48
2023-06-14T04:18:59.383Z,12.50
2023-06-14T04:22:03.508Z,12.54
2023-06-14T04:25:09.629Z,12.59
2023-06-14T04:28:16.820Z,12.64
2023-06-14T04:31:20.252Z,12.67
2023-06-14T04:34:24.960Z,12.71
2023-06-14T04:37:31.525Z,12.73
2023-06-14T04:40:34.993Z,12.73
2023-06-14T04:43:39.321Z,12.74
2023-06-14T04:46:49.372Z,12.74
2023-06-14T04:49:58.983Z,12.77
2023-06-14T04:53:01.858Z,12.79
2023-06-14T04:56:05.652Z,12.77
2023-06-14T04:59:10.328Z,12.80
2023-06-14T05:02:13.433Z,12.85
2023-06-14T05:05:17.383Z,12.89
2023-06-14T05:08:24.605Z,12.92
2023-06-14T05:11:28.340Z,12.94
2023-06-14T05:14:31.358Z,12.97
2023-06-14T05:17:37.369Z,13.00
2023-06-14T05:20:40.306Z,13.02
2023-06-14T05:23:43.120Z,13.06
2023-06-14T05:26:46.301Z,13.12
2023-06-14T05:29:49.210Z,13.17
2023-06-14T05:32:52.051Z,13.22
2023-06-14T05:35:56.712Z,13.23
2023-06-14T05:39:01.198Z,13.22
2023-06-14T05:42:05.356Z,13.24
2023-06-14T05:45:08.759Z,13.29
2023-06-14T05:48:11.968Z,13.29
2023-06-14T05:51:15.875Z,13.31
2023-06-14T05:54:18.736Z,13.35
2023-06-14T05:57:21.572Z,13.40
2023-06-14T06:00:24.474Z,13.45
2023-06-14T06:03:30.421Z,13.47
2023-06-14T06:06:33.756Z,13.45
2023-06-14T06:09:36.992Z,13.45
2023-06-14T06:12:39.785Z,13.43
2023-06-14T06:15:42.584Z,13.46
2023-06-14T06:18:45.828Z,13.59
2023-06-14T06:21:48.915Z,13.74
2023-06-14T06:24:51.963Z,13.90
2023-06-14T06:27:57.794Z,14.10
2023-06-14T06:31:03.914Z,14.28
2023-06-14T06:34:07.833Z,14.38
2023-06-14T06:37:10.887Z,14.45
2023-06-14T06:40:14.124Z,14.50
2023-06-14T06:43:19.101Z,14.64
2023-06-14T06:46:24.028Z,14.83
2023-06-14T06:49:26.998Z,14.98
2023-06-14T06:52:30.419Z,15.09
2023-06-14T06:55:33.625Z,15.19
2023-06-14T06:58:36.513Z,15.29
2023-06-14T07:01:40.128Z,15.43
2023-06-14T07:04:43.138Z,15.49
2023-06-14T07:07:45.996Z,15.60
2023-06-14T07:10:49.182Z,15.71
2023-06-14T07:13:51.935Z,15.83
2023-06-14T07:16:54.797Z,15.96
2023-06-14T07:19:58.367Z,16.13
2023-06-14T07:23:01.545Z,16.28
2023-06-14T07:26:04.397Z,16.42
2023-06-14T07:29:07.735Z,16.53
2023-06-14T07:32:10.561Z,16.70
2023-06-14T07:35:13.717Z,16.88
2023-06-14T07:38:17.003Z,17.08
2023-06-14T07:41:19.880Z,17.34
2023-06-14T07:44:22.697Z,17.58
2023-06-14T07:47:26.583Z,17.90
2023-06-14T07:50:30.200Z,18.12
2023-06-14T07:53:33.177Z,18.14
2023-06-14T07:56:36.849Z,17.94
2023-06-14T07:59:39.696Z,17.88
2023-06-14T08:02:43.806Z,17.95
2023-06-14T08:05:47.008Z,17.83
2023-06-14T08:08:49.840Z,17.53
2023-06-14T08:11:52.660Z,17.48
2023-06-14T08:15:09.169Z,17.38
2023-06-14T08:18:17.126Z,17.23
2023-06-14T08:21:20.541Z,17.17
2023-06-14T08:24:26.361Z,17.04
2023-06-14T08:27:30.953Z,16.92
2023-06-14T08:30:33.969Z,16.80
2023-06-14T08:33:37.087Z,16.64
2023-06-14T08:36:40.106Z,16.50
2023-06-14T08:39:43.324Z,16.39
2023-06-14T08:42:48.358Z,16.35
2023-06-14T08:45:57.489Z,16.35
2023-06-14T08:49:01.698Z,16.41
2023-06-14T08:52:09.350Z,16.47
2023-06-14T08:55:12.913Z,16.41
2023-06-14T08:58:16.218Z,16.39
2023-06-14T09:01:20.496Z,16.44
2023-06-14T09:04:23.489Z,16.50
2023-06-14T09:07:27.717Z,16.55
2023-06-14T09:10:34.685Z,16.63
2023-06-14T09:13:37.572Z,16.68
2023-06-14T09:16:40.433Z,16.78
2023-06-14T09:19:43.375Z,17.00
2023-06-14T09:22:47.135Z,17.21
2023-06-14T09:25:50.038Z,17.48
2023-06-14T09:28:53.014Z,17.73
2023-06-14T09:31:56.344Z,18.06
2023-06-14T09:34:59.215Z,18.28
2023-06-14T09:38:02.313Z,18.59
2023-06-14T09:41:05.518Z,18.82
2023-06-14T09:44:12.065Z,18.95
2023-06-14T09:47:19.675Z,18.90
2023-06-14T09:50:22.533Z,18.51
2023-06-14T09:53:27.041Z,18.31
2023-06-14T09:56:32.028Z,18.21
2023-06-14T09:59:36.229Z,18.10
2023-06-14T10:02:40.628Z,17.95
2023-06-14T10:05:46.683Z,17.83
2023-06-14T10:08:50.353Z,17.75
2023-06-14T10:11:53.645Z,17.60
2023-06-14T10:14:58.771Z,17.52
2023-06-14T10:18:16.278Z,17.47
2023-06-14T10:21:37.188Z,17.37
2023-06-14T10:24:44.612Z,17.30
2023-06-14T10:27:48.335Z,17.27
2023-06-14T10:31:12.087Z,17.30
2023-06-14T10:34:32.282Z,17.30
2023-06-14T10:37:35.287Z,17.30
2023-06-14T10:40:40.175Z,17.31
2023-06-14T10:43:42.968Z,17.39
2023-06-14T10:46:55.282Z,17.61
2023-06-14T10:50:09.984Z,17.86
2023-06-14T10:53:25.322Z,18.11
2023-06-14T10:56:32.386Z,18.35
2023-06-14T10:59:35.195Z,18.59
2023-06-14T11:02:52.700Z,18.76
2023-06-14T11:05:57.761Z,19.05
2023-06-14T11:09:28.872Z,19.28
2023-06-14T11:12:34.506Z,19.48
2023-06-14T11:15:39.126Z,19.51
2023-06-14T11:18:43.570Z,19.41
2023-06-14T11:21:49.314Z,19.28
2023-06-14T11:24:52.126Z,19.26
2023-06-14T11:27:55.932Z,19.39
2023-06-14T11:31:04.556Z,19.70
2023-06-14T11:34:07.608Z,19.89
2023-06-14T11:37:10.681Z,20.08
2023-06-14T11:40:13.740Z,20.20
2023-06-14T11:44:00.892Z,20.36
2023-06-14T11:47:05.115Z,20.47
2023-06-14T11:50:10.267Z,20.47
2023-06-14T11:53:13.515Z,20.43
2023-06-14T11:56:17.792Z,20.69
2023-06-14T11:59:22.114Z,21.11
2023-06-14T12:02:26.678Z,21.54
2023-06-14T12:05:29.924Z,21.42
2023-06-14T12:08:40.807Z,21.19
2023-06-14T12:11:44.080Z,20.89
2023-06-14T12:14:48.493Z,20.67
2023-06-14T12:17:52.013Z,20.37
2023-06-14T12:20:54.889Z,19.81
2023-06-14T12:23:57.772Z,19.38
2023-06-14T12:27:06.613Z,18.90
2023-06-14T12:30:10.404Z,18.35
2023-06-14T12:33:13.948Z,17.81
2023-06-14T12:36:17.961Z,17.40
2023-06-14T12:39:21.872Z,17.27
2023-06-14T12:42:24.694Z,17.18
2023-06-14T12:45:27.511Z,17.11
2023-06-14T12:48:32.272Z,17.08
2023-06-14T12:51:36.029Z,17.06
2023-06-14T12:54:41.562Z,17.02
2023-06-14T12:57:44.552Z,16.97
2023-06-14T13:00:48.659Z,16.95
2023-06-14T13:03:52.926Z,16.97
2023-06-14T13:06:55.836Z,16.99
2023-06-14T13:09:58.852Z,16.98
2023-06-14T13:13:01.813Z,16.93
2023-06-14T13:16:05.156Z,16.87
2023-06-14T13:19:07.993Z,16.81
2023-06-14T13:22:11.046Z,16.67
2023-06-14T13:25:14.251Z,16.52
2023-06-14T13:28:17.206Z,16.43
2023-06-14T13:31:20.107Z,16.38
2023-06-14T13:34:23.391Z,16.29
2023-06-14T13:37:26.522Z,16.22
2023-06-14T13:40:29.418Z,16.16
2023-06-14T13:43:32.234Z,16.12
2023-06-14T13:46:35.209Z,16.07
2023-06-14T13:49:38.117Z,16.05
2023-06-14T13:52:41.305Z,16.03
2023-06-14T13:55:44.585Z,16.05
2023-06-14T13:58:47.385Z,16.09
2023-06-14T14:01:51.032Z,16.14
2023-06-14T14:04:54.960Z,16.18
2023-06-14T14:07:58.272Z,16.21
2023-06-14T14:11:01.916Z,16.19
2023-06-14T14:14:06.304Z,16.17
2023-06-14T14:17:09.373Z,16.17
2023-06-14T14:20:17.215Z,16.15
2023-06-14T14:23:21.875Z,16.17
2023-06-14T14:26:25.836Z,16.20
2023-06-14T14:29:31.744Z,16.23
2023-06-14T14:32:34.584Z,16.27
2023-06-14T14:35:37.504Z,16.30
2023-06-14T14:38:40.940Z,16.33
2023-06-14T14:41:43.764Z,16.37
2023-06-14T14:44:46.659Z,16.36
2023-06-14T14:47:49.479Z,16.36
2023-06-14T14:50:52.315Z,16.40
2023-06-14T14:53:56.213Z,16.44
2023-06-14T14:56:59.138Z,16.47
2023-06-14T15:00:02.164Z,16.50
2023-06-14T15:03:05.249Z,16.54
2023-06-14T15:06:08.204Z,16.56
2023-06-14T15:09:11.379Z,16.58
2023-06-14T15:12:14.204Z,16.60
2023-06-14T15:15:17.080Z,16.62
2023-06-14T15:18:21.720Z,16.64
2023-06-14T15:21:24.773Z,16.68
2023-06-14T15:24:41.427Z,16.76
2023-06-14T15:27:46.261Z,16.78
2023-06-14T15:30:49.065Z,16.81
2023-06-14T15:33:51.936Z,16.82
2023-06-14T15:36:54.919Z,16.83
2023-06-14T15:39:57.809Z,16.84
2023-06-14T15:43:00.706Z,16.83
2023-06-14T15:46:03.817Z,16.80
2023-06-14T15:49:14.479Z,16.79
2023-06-14T15:52:17.449Z,16.79
2023-06-14T15:55:20.805Z,16.80
2023-06-14T15:58:23.727Z,16.77
2023-06-14T16:01:28.366Z,16.78
2023-06-14T16:04:31.230Z,16.79
2023-06-14T16:07:34.256Z,16.79
2023-06-14T16:10:37.536Z,16.73
2023-06-14T16:13:43.128Z,16.64
2023-06-14T16:16:47.775Z,16.60
2023-06-14T16:19:51.057Z,16.60
2023-06-14T16:22:54.180Z,16.55
2023-06-14T16:25:56.972Z,16.51
2023-06-14T16:28:59.751Z,16.48
2023-06-14T16:32:03.317Z,16.43
2023-06-14T16:35:07.230Z,16.41
2023-06-14T16:38:11.647Z,16.43
2023-06-14T16:41:16.116Z,16.42
2023-06-14T16:44:19.599Z,16.40
2023-06-14T16:47:22.402Z,16.40
2023-06-14T16:50:25.271Z,16.34
2023-06-14T16:53:29.084Z,16.31
2023-06-14T16:56:32.468Z,16.30
2023-06-14T16:59:35.370Z,16.31
2023-06-14T17:02:38.644Z,16.33
2023-06-14T17:05:55.688Z,16.32
2023-06-14T17:08:58.555Z,16.30
2023-06-14T17:12:02.429Z,16.27
2023-06-14T17:15:06.175Z,16.26
2023-06-14T17:18:09.202Z,16.29
2023-06-14T17:21:14.276Z,16.31
2023-06-14T17:24:25.913Z,16.32
2023-06-14T17:27:29.753Z,16.33
2023-06-14T17:30:32.572Z,16.35
2023-06-14T17:33:37.391Z,16.36
2023-06-14T17:36:40.379Z,16.43
2023-06-14T17:39:43.355Z,16.52
2023-06-14T17:42:46.146Z,16.55
2023-06-14T17:45:49.094Z,16.57
2023-06-14T17:48:52.145Z,16.62
2023-06-14T17:51:55.338Z,16.67
2023-06-14T17:54:58.363Z,16.67
2023-06-14T17:58:03.204Z,16.66
2023-06-14T18:01:06.334Z,16.61
2023-06-14T18:04:09.676Z,16.55
2023-06-14T18:07:12.789Z,16.56
2023-06-14T18:10:18.348Z,16.58
2023-06-14T18:13:21.388Z,16.58
2023-06-14T18:16:24.513Z,16.59
2023-06-14T18:19:29.752Z,16.52
2023-06-14T18:22:32.838Z,16.47
2023-06-14T18:25:35.649Z,16.42
2023-06-14T18:28:38.480Z,16.35
2023-06-14T18:31:41.639Z,16.29
2023-06-14T18:34:44.524Z,16.27
2023-06-14T18:37:47.316Z,16.22
2023-06-14T18:40:52.707Z,16.17
2023-06-14T18:43:55.956Z,16.11
2023-06-14T18:46:58.796Z,16.04
2023-06-14T18:50:01.692Z,15.99
2023-06-14T18:53:04.722Z,15.95
2023-06-14T18:56:07.699Z,15.88
2023-06-14T18:59:10.558Z,15.80
2023-06-14T19:02:13.644Z,15.74
2023-06-14T19:05:19.036Z,15.71
2023-06-14T19:08:23.329Z,15.64
2023-06-14T19:11:26.173Z,15.62
2023-06-14T19:14:29.107Z,15.54
2023-06-14T19:17:32.033Z,15.48
2023-06-14T19:20:35.196Z,15.44
2023-06-14T19:23:38.424Z,15.39
2023-06-14T19:26:41.455Z,15.31
2023-06-14T19:29:44.324Z,15.25
2023-06-14T19:32:52.772Z,15.21
2023-06-14T19:35:57.574Z,15.21
2023-06-14T19:39:00.570Z,15.18
2023-06-14T19:42:04.014Z,15.15
2023-06-14T19:45:11.393Z,15.16
2023-06-14T19:48:21.063Z,15.13
2023-06-14T19:51:25.123Z,15.10
2023-06-14T19:54:28.725Z,15.07
2023-06-14T19:57:31.513Z,15.04
2023-06-14T20:00:34.645Z,15.03
2023-06-14T20:03:37.580Z,15.02
2023-06-14T20:06:40.734Z,14.98
2023-06-14T20:09:43.528Z,14.93
2023-06-14T20:12:47.155Z,14.87
2023-06-14T20:15:50.095Z,14.84
2023-06-14T20:18:53.009Z,14.82
2023-06-14T20:21:55.897Z,14.78
2023-06-14T20:24:58.717Z,14.73
2023-06-14T20:28:01.857Z,14.68
2023-06-14T20:31:04.857Z,14.65
2023-06-14T20:34:07.719Z,14.65
2023-06-14T20:37:10.723Z,14.66
2023-06-14T20:40:21.410Z,14.64
2023-06-14T20:43:27.864Z,14.64
2023-06-14T20:46:31.857Z,14.63
2023-06-14T20:49:34.701Z,14.61
2023-06-14T20:52:37.535Z,14.60
2023-06-14T20:55:40.367Z,14.62
2023-06-14T20:58:44.039Z,14.57
2023-06-14T21:01:48.038Z,14.55
2023-06-14T21:04:51.463Z,14.55
2023-06-14T21:07:54.327Z,14.58
2023-06-14T21:10:59.102Z,14.57
2023-06-14T21:14:02.097Z,14.56
2023-06-14T21:17:06.830Z,14.57
2023-06-14T21:20:10.162Z,14.56
2023-06-14T21:23:14.436Z,14.54
2023-06-14T21:26:17.640Z,14.54
2023-06-14T21:29:20.540Z,14.57
2023-06-14T21:32:23.375Z,14.57
2023-06-14T21:35:26.397Z,14.52
2023-06-14T21:38:29.276Z,14.53
2023-06-14T21:41:32.712Z,14.51
2023-06-14T21:44:43.614Z,14.50
2023-06-14T21:47:47.287Z,14.49
2023-06-14T21:50:50.207Z,14.48
2023-06-14T21:53:53.044Z,14.48
2023-06-14T21:56:56.011Z,14.47
2023-06-14T21:59:58.783Z,14.46
2023-06-14T22:03:02.596Z,14.51
2023-06-14T22:06:05.998Z,14.56
2023-06-14T22:09:08.923Z,14.57
2023-06-14T22:12:16.025Z,14.59
2023-06-14T22:15:19.927Z,14.67
2023-06-14T22:18:23.061Z,14.77
2023-06-14T22:21:26.974Z,14.80
2023-06-14T22:24:29.981Z,14.80
2023-06-14T22:27:33.367Z,14.84
2023-06-14T22:30:37.446Z,14.95
2023-06-14T22:33:42.986Z,14.95
2023-06-14T22:36:49.022Z,14.85
2023-06-14T22:39:52.083Z,14.72
2023-06-14T22:42:58.340Z,14.64
2023-06-14T22:46:01.778Z,14.57
2023-06-14T22:49:04.722Z,14.49
2023-06-14T22:52:08.055Z,14.50
2023-06-14T22:55:12.063Z,14.48
2023-06-14T22:58:16.363Z,14.47
2023-06-14T23:01:19.421Z,14.44
2023-06-14T23:04:23.843Z,14.43
2023-06-14T23:07:28.398Z,14.45
2023-06-14T23:10:31.342Z,14.39
2023-06-14T23:13:34.106Z,14.36
2023-06-14T23:16:36.995Z,14.38
2023-06-14T23:19:40.904Z,14.43
2023-06-14T23:22:44.730Z,14.44
2023-06-14T23:25:49.567Z,14.43
2023-06-14T23:28:55.452Z,14.41
2023-06-14T23:32:00.768Z,14.40
2023-06-14T23:35:05.890Z,14.36
2023-06-14T23:38:13.481Z,14.35
2023-06-14T23:41:17.105Z,14.34
2023-06-14T23:44:24.670Z,14.41
2023-06-14T23:47:30.972Z,14.41
2023-06-14T23:50:33.851Z,14.42
2023-06-14T23:53:38.357Z,14.39
2023-06-14T23:56:42.580Z,14.28
2023-06-14T23:59:46.016Z,14.20
